createdAt,value
2022-09-21T00:00:43.417Z,3.97
2022-09-21T00:03:09.820Z,4.20
2022-09-21T00:05:36.198Z,3.70
2022-09-21T00:08:05.103Z,3.90
2022-09-21T00:10:31.902Z,3.92
2022-09-21T00:12:59.167Z,3.65
2022-09-21T00:15:26.035Z,3.80
2022-09-21T00:17:53.800Z,3.75
2022-09-21T00:20:21.653Z,4.10
2022-09-21T00:22:48.302Z,3.92
2022-09-21T00:25:15.327Z,4.05
2022-09-21T00:27:41.879Z,3.75
2022-09-21T00:30:09.162Z,4.00
2022-09-21T00:32:37.620Z,3.88
2022-09-21T00:35:06.780Z,3.60
2022-09-21T00:37:34.047Z,3.90
2022-09-21T00:40:00.530Z,4.40
2022-09-21T00:42:32.646Z,4.57
2022-09-21T00:44:59.559Z,4.50
2022-09-21T00:47:27.464Z,4.28
2022-09-21T00:49:55.605Z,4.38
2022-09-21T00:52:26.912Z,4.80
2022-09-21T00:54:56.158Z,4.80
2022-09-21T00:57:25.642Z,5.38
2022-09-21T00:59:54.923Z,5.18
2022-09-21T01:02:22.004Z,5.32
2022-09-21T01:04:49.055Z,5.03
2022-09-21T01:07:19.271Z,4.53
2022-09-21T01:09:50.368Z,4.20
2022-09-21T01:12:29.756Z,4.63
2022-09-21T01:15:34.639Z,4.60
2022-09-21T01:18:35.306Z,3.85
2022-09-21T01:21:19.410Z,4.07
2022-09-21T01:24:04.069Z,4.38
2022-09-21T01:26:49.072Z,4.05
2022-09-21T01:29:43.314Z,4.55
2022-09-21T01:32:36.049Z,4.38
2022-09-21T01:35:19.286Z,4.45
2022-09-21T01:37:48.672Z,4.68
2022-09-21T01:40:36.052Z,4.90
2022-09-21T01:43:04.139Z,4.75
2022-09-21T01:45:37.022Z,5.32
2022-09-21T01:48:04.047Z,5.03
2022-09-21T01:50:38.325Z,5.35
2022-09-21T01:53:21.622Z,5.38
2022-09-21T01:56:01.418Z,5.10
2022-09-21T01:58:37.532Z,5.95
2022-09-21T02:01:05.137Z,7.13
2022-09-21T02:03:42.437Z,7.20
2022-09-21T02:06:10.047Z,7.90
2022-09-21T02:08:36.561Z,8.23
2022-09-21T02:11:04.265Z,8.40
2022-09-21T02:13:33.138Z,8.27
2022-09-21T02:16:03.761Z,8.10
2022-09-21T02:19:02.596Z,7.60
2022-09-21T02:21:43.492Z,7.60
2022-09-21T02:24:42.134Z,7.85
2022-09-21T02:27:36.375Z,7.65
2022-09-21T02:30:14.605Z,8.05
2022-09-21T02:32:51.290Z,7.55
2022-09-21T02:36:02.052Z,7.30
2022-09-21T02:38:28.300Z,7.35
2022-09-21T02:41:31.355Z,7.70
2022-09-21T02:44:08.319Z,6.78
2022-09-21T02:46:39.011Z,7.15
2022-09-21T02:49:12.751Z,6.95
2022-09-21T02:51:44.234Z,6.38
2022-09-21T02:54:11.887Z,7.53
2022-09-21T02:56:38.909Z,7.20
2022-09-21T02:59:06.078Z,7.50
2022-09-21T03:01:32.948Z,8.00
2022-09-21T03:03:59.538Z,7.35
2022-09-21T03:06:25.931Z,6.70
2022-09-21T03:08:52.502Z,6.78
2022-09-21T03:11:19.634Z,7.00
2022-09-21T03:13:46.309Z,6.68
2022-09-21T03:16:13.295Z,6.47
2022-09-21T03:18:40.253Z,6.60
2022-09-21T03:21:06.932Z,6.55
2022-09-21T03:23:33.320Z,6.72
2022-09-21T03:25:59.719Z,7.13
2022-09-21T03:28:26.508Z,6.85
2022-09-21T03:30:52.975Z,6.72
2022-09-21T03:33:20.154Z,6.72
2022-09-21T03:35:48.642Z,7.32
2022-09-21T03:38:16.703Z,7.65
2022-09-21T03:40:46.930Z,7.55
2022-09-21T03:43:13.616Z,7.97
2022-09-21T03:45:41.947Z,7.28
2022-09-21T03:48:10.018Z,8.27
2022-09-21T03:50:37.188Z,8.50
2022-09-21T03:53:03.967Z,8.10
2022-09-21T03:55:31.155Z,6.88
2022-09-21T03:57:57.522Z,8.15
2022-09-21T04:00:24.027Z,8.07
2022-09-21T04:02:50.421Z,8.80
2022-09-21T04:05:16.985Z,8.73
2022-09-21T04:07:45.694Z,8.48
2022-09-21T04:10:13.691Z,7.95
2022-09-21T04:12:43.961Z,8.30
2022-09-21T04:15:15.543Z,7.60
2022-09-21T04:17:42.139Z,7.78
2022-09-21T04:20:09.136Z,6.72
2022-09-21T04:22:41.166Z,7.50
2022-09-21T04:25:10.087Z,7.03
2022-09-21T04:27:36.479Z,7.05
2022-09-21T04:30:02.917Z,6.70
2022-09-21T04:32:29.276Z,7.50
2022-09-21T04:34:55.798Z,8.27
2022-09-21T04:37:22.326Z,8.18
2022-09-21T04:39:48.824Z,7.93
2022-09-21T04:42:15.318Z,7.90
2022-09-21T04:44:41.710Z,7.60
2022-09-21T04:47:08.132Z,7.40
2022-09-21T04:49:34.544Z,7.28
2022-09-21T04:52:01.268Z,7.55
2022-09-21T04:54:27.670Z,8.05
2022-09-21T04:56:54.144Z,7.90
2022-09-21T04:59:20.540Z,7.05
2022-09-21T05:01:46.957Z,7.28
2022-09-21T05:04:13.363Z,6.72
2022-09-21T05:06:39.769Z,6.32
2022-09-21T05:09:24.987Z,6.60
2022-09-21T05:11:52.891Z,6.90
2022-09-21T05:14:19.296Z,7.00
2022-09-21T05:16:49.506Z,7.45
2022-09-21T05:19:16.935Z,8.05
2022-09-21T05:21:43.373Z,8.55
2022-09-21T05:24:09.895Z,7.80
2022-09-21T05:26:36.275Z,8.07
2022-09-21T05:29:02.965Z,8.43
2022-09-21T05:31:42.334Z,8.10
2022-09-21T05:34:21.403Z,8.43
2022-09-21T05:37:10.258Z,8.70
2022-09-21T05:39:36.897Z,8.55
2022-09-21T05:42:03.616Z,8.48
2022-09-21T05:44:30.254Z,8.18
2022-09-21T05:47:05.650Z,8.23
2022-09-21T05:49:46.003Z,7.90
2022-09-21T05:52:27.767Z,7.82
2022-09-21T05:55:29.621Z,7.68
2022-09-21T05:58:04.044Z,7.00
2022-09-21T06:00:41.310Z,6.80
2022-09-21T06:03:26.847Z,6.40
2022-09-21T06:05:53.406Z,6.63
2022-09-21T06:08:19.831Z,7.30
2022-09-21T06:10:46.228Z,6.63
2022-09-21T06:13:12.635Z,7.00
2022-09-21T06:15:39.188Z,6.60
2022-09-21T06:18:09.036Z,6.57
2022-09-21T06:20:35.807Z,6.88
2022-09-21T06:23:06.738Z,7.03
2022-09-21T06:25:33.444Z,7.32
2022-09-21T06:28:08.290Z,7.75
2022-09-21T06:30:34.820Z,7.93
2022-09-21T06:33:01.707Z,7.57
2022-09-21T06:35:29.098Z,7.40
2022-09-21T06:38:05.622Z,7.03
2022-09-21T06:40:33.495Z,7.50
2022-09-21T06:43:00.833Z,7.40
2022-09-21T06:45:28.162Z,6.57
2022-09-21T06:47:55.929Z,5.93
2022-09-21T06:50:22.469Z,6.18
2022-09-21T06:52:49.064Z,6.72
2022-09-21T06:55:15.587Z,7.03
2022-09-21T06:57:42.033Z,7.75
2022-09-21T07:00:10.642Z,8.38
2022-09-21T07:02:37.287Z,7.28
2022-09-21T07:05:04.484Z,8.40
2022-09-21T07:07:31.556Z,8.68
2022-09-21T07:10:05.836Z,8.38
2022-09-21T07:12:34.641Z,8.05
2022-09-21T07:15:05.420Z,8.00
2022-09-21T07:17:36.603Z,7.82
2022-09-21T07:20:04.442Z,7.32
2022-09-21T07:22:31.987Z,7.82
2022-09-21T07:24:58.434Z,8.93
2022-09-21T07:27:25.913Z,8.85
2022-09-21T07:29:52.386Z,8.70
2022-09-21T07:32:19.038Z,9.27
2022-09-21T07:34:46.092Z,9.90
2022-09-21T07:37:13.312Z,10.43
2022-09-21T07:39:39.680Z,10.77
2022-09-21T07:42:06.720Z,10.65
2022-09-21T07:44:34.095Z,10.50
2022-09-21T07:47:02.228Z,10.02
2022-09-21T07:49:28.712Z,11.52
2022-09-21T07:51:55.115Z,9.98
2022-09-21T07:54:21.508Z,10.32
2022-09-21T07:57:07.854Z,11.57
2022-09-21T07:59:34.212Z,12.07
2022-09-21T08:02:00.684Z,11.77
2022-09-21T08:04:27.171Z,11.93
2022-09-21T08:06:53.574Z,11.15
2022-09-21T08:09:19.975Z,11.63
2022-09-21T08:11:47.082Z,11.90
2022-09-21T08:14:23.681Z,12.48
2022-09-21T08:16:52.588Z,11.85
2022-09-21T08:19:19.243Z,12.63
2022-09-21T08:21:51.350Z,11.82
2022-09-21T08:24:20.499Z,12.07
2022-09-21T08:26:46.902Z,11.52
2022-09-21T08:29:16.045Z,12.77
2022-09-21T08:31:43.181Z,12.25
2022-09-21T08:34:09.726Z,12.70
2022-09-21T08:36:36.128Z,12.63
2022-09-21T08:39:02.637Z,13.75
2022-09-21T08:41:50.653Z,13.43
2022-09-21T08:44:20.143Z,14.90
2022-09-21T08:46:48.895Z,14.93
2022-09-21T08:49:19.968Z,14.40
2022-09-21T08:51:51.162Z,14.60
2022-09-21T08:54:28.008Z,15.02
2022-09-21T08:57:04.953Z,14.93
2022-09-21T08:59:32.007Z,14.40
2022-09-21T09:02:13.651Z,15.48
2022-09-21T09:04:50.547Z,15.90
2022-09-21T09:07:30.244Z,15.88
2022-09-21T09:10:05.821Z,16.83
2022-09-21T09:12:37.700Z,15.75
2022-09-21T09:15:14.592Z,15.60
2022-09-21T09:17:52.899Z,16.27
2022-09-21T09:20:44.239Z,15.80
2022-09-21T09:23:17.202Z,16.95
2022-09-21T09:25:44.692Z,17.10
2022-09-21T09:28:35.935Z,17.65
2022-09-21T09:31:07.122Z,16.67
2022-09-21T09:33:44.826Z,15.45
2022-09-21T09:36:12.208Z,15.85
2022-09-21T09:38:42.192Z,14.55
2022-09-21T09:41:42.934Z,14.05
2022-09-21T09:44:18.979Z,14.00
2022-09-21T09:46:56.964Z,12.50
2022-09-21T09:49:34.626Z,13.07
2022-09-21T09:52:01.274Z,12.13
2022-09-21T09:54:28.860Z,12.73
2022-09-21T09:56:55.445Z,11.38
2022-09-21T09:59:41.768Z,12.13
2022-09-21T10:02:25.453Z,12.45
2022-09-21T10:05:06.649Z,11.30
2022-09-21T10:07:40.207Z,11.13
2022-09-21T10:10:21.475Z,9.77
2022-09-21T10:12:48.299Z,9.23
2022-09-21T10:15:17.526Z,8.48
2022-09-21T10:17:45.928Z,7.53
2022-09-21T10:20:18.047Z,7.80
2022-09-21T10:22:48.206Z,7.50
2022-09-21T10:25:19.321Z,7.65
2022-09-21T10:27:48.658Z,8.05
2022-09-21T10:30:38.702Z,7.18
2022-09-21T10:33:19.294Z,6.47
2022-09-21T10:35:52.962Z,6.45
2022-09-21T10:38:22.627Z,4.90
2022-09-21T10:40:50.223Z,5.18
2022-09-21T10:43:39.846Z,4.63
2022-09-21T10:46:09.173Z,4.15
2022-09-21T10:48:36.047Z,3.40
2022-09-21T10:51:02.905Z,2.90
2022-09-21T10:53:30.260Z,3.53
2022-09-21T10:56:21.862Z,2.10
2022-09-21T10:59:10.197Z,1.90
2022-09-21T11:01:43.582Z,1.67
2022-09-21T11:04:14.783Z,2.00
2022-09-21T11:06:47.341Z,2.00
2022-09-21T11:09:22.519Z,1.50
2022-09-21T11:12:17.034Z,1.42
2022-09-21T11:15:05.326Z,1.60
2022-09-21T11:17:47.188Z,1.88
2022-09-21T11:20:28.195Z,1.35
2022-09-21T11:22:57.593Z,1.42
2022-09-21T11:25:44.106Z,1.63
2022-09-21T11:28:15.919Z,1.58
2022-09-21T11:31:05.366Z,1.63
2022-09-21T11:33:54.511Z,1.50
2022-09-21T11:36:52.936Z,1.48
2022-09-21T11:39:41.192Z,1.30
2022-09-21T11:42:40.548Z,1.40
2022-09-21T11:45:38.702Z,1.55
2022-09-21T11:48:15.482Z,1.52
2022-09-21T11:54:10.522Z,1.40
2022-09-21T11:56:43.803Z,1.65
2022-09-21T11:59:18.160Z,1.40
2022-09-21T12:02:15.404Z,1.20
2022-09-21T12:04:44.199Z,1.48
2022-09-21T12:07:20.418Z,1.42
2022-09-21T12:10:07.545Z,1.40
2022-09-21T12:12:44.117Z,1.20
2022-09-21T12:15:34.659Z,1.02
2022-09-21T12:18:08.091Z,1.30
2022-09-21T12:20:58.554Z,1.38
2022-09-21T12:23:46.452Z,1.70
2022-09-21T12:26:17.808Z,1.52
2022-09-21T12:29:25.251Z,1.15
2022-09-21T12:32:00.680Z,1.38
2022-09-21T12:34:31.079Z,1.10
2022-09-21T12:37:08.589Z,1.33
2022-09-21T12:39:42.282Z,0.98
2022-09-21T12:42:49.016Z,1.20
2022-09-21T12:45:21.152Z,1.40
2022-09-21T12:48:23.174Z,1.00
2022-09-21T12:50:56.259Z,1.20
2022-09-21T12:53:27.248Z,1.75
2022-09-21T12:56:10.618Z,1.10
2022-09-21T12:58:51.296Z,1.15
2022-09-21T13:01:32.438Z,1.20
2022-09-21T13:04:04.826Z,1.00
2022-09-21T13:07:01.991Z,0.98
2022-09-21T13:09:29.256Z,1.30
2022-09-21T13:12:00.050Z,0.80
2022-09-21T13:14:35.783Z,1.10
2022-09-21T13:17:04.921Z,1.02
2022-09-21T13:19:33.302Z,1.00
2022-09-21T13:22:25.689Z,1.30
2022-09-21T13:25:03.063Z,1.40
2022-09-21T13:28:00.666Z,1.13
2022-09-21T13:30:31.892Z,1.35
2022-09-21T13:32:58.726Z,0.95
2022-09-21T13:35:44.231Z,1.02
2022-09-21T13:38:29.227Z,1.30
2022-09-21T13:41:04.347Z,1.45
2022-09-21T13:44:04.065Z,1.10
2022-09-21T13:46:34.945Z,1.23
2022-09-21T13:49:04.529Z,0.98
2022-09-21T13:51:34.672Z,0.93
2022-09-21T13:54:02.506Z,1.00
2022-09-21T13:56:29.206Z,1.40
2022-09-21T13:58:57.329Z,1.27
2022-09-21T14:01:46.855Z,1.00
2022-09-21T14:04:32.809Z,0.98
2022-09-21T14:07:04.097Z,1.05
2022-09-21T14:09:38.366Z,1.10
2022-09-21T14:12:06.375Z,1.00
2022-09-21T14:14:38.046Z,1.10
2022-09-21T14:17:06.212Z,1.60
2022-09-21T14:19:33.364Z,1.10
2022-09-21T14:22:06.225Z,1.00
2022-09-21T14:24:42.983Z,1.38
2022-09-21T14:27:30.058Z,1.13
2022-09-21T14:30:07.651Z,1.02
2022-09-21T14:32:42.528Z,1.48
2022-09-21T14:35:22.131Z,1.23
2022-09-21T14:37:52.146Z,0.80
2022-09-21T14:40:39.512Z,1.00
2022-09-21T14:43:12.716Z,1.10
2022-09-21T14:46:08.761Z,1.05
2022-09-21T14:48:50.431Z,1.10
2022-09-21T14:51:36.414Z,1.10
2022-09-21T14:54:15.021Z,1.08
2022-09-21T14:57:00.264Z,1.00
2022-09-21T15:00:14.770Z,0.98
2022-09-21T15:02:43.417Z,0.70
2022-09-21T15:05:19.502Z,0.90
2022-09-21T15:08:25.753Z,1.05
2022-09-21T15:11:15.919Z,0.90
2022-09-21T15:13:49.376Z,1.42
2022-09-21T15:16:40.249Z,0.80
2022-09-21T15:19:21.187Z,1.20
2022-09-21T15:21:53.010Z,1.02
2022-09-21T15:24:31.610Z,0.95
2022-09-21T15:27:10.378Z,0.80
2022-09-21T15:29:37.633Z,1.10
2022-09-21T15:32:05.562Z,0.98
2022-09-21T15:34:32.235Z,1.00
2022-09-21T15:37:15.476Z,1.00
2022-09-21T15:39:41.937Z,1.02
2022-09-21T15:42:19.516Z,1.08
2022-09-21T15:44:48.600Z,0.98
2022-09-21T15:47:18.127Z,1.23
2022-09-21T15:49:45.503Z,1.02
2022-09-21T15:52:25.663Z,0.98
2022-09-21T15:55:05.151Z,1.15
2022-09-21T15:57:39.231Z,1.17
2022-09-21T16:00:22.110Z,0.80
2022-09-21T16:05:22.836Z,0.82
2022-09-21T16:07:49.273Z,0.98
2022-09-21T16:10:30.863Z,1.00
2022-09-21T16:13:24.013Z,0.85
2022-09-21T16:16:01.560Z,1.10
2022-09-21T16:18:35.194Z,1.00
2022-09-21T16:21:12.252Z,1.00
2022-09-21T16:23:39.395Z,1.00
2022-09-21T16:26:06.120Z,0.90
2022-09-21T16:28:40.998Z,1.20
2022-09-21T16:31:26.138Z,1.02
2022-09-21T16:33:55.549Z,1.73
2022-09-21T16:36:33.805Z,1.10
2022-09-21T16:39:01.110Z,1.05
2022-09-21T16:41:34.370Z,1.00
2022-09-21T16:44:01.074Z,1.50
2022-09-21T16:46:27.530Z,1.00
2022-09-21T16:48:55.541Z,1.17
2022-09-21T16:51:25.128Z,1.10
2022-09-21T16:53:52.069Z,0.95
2022-09-21T16:56:18.593Z,1.27
2022-09-21T16:58:45.665Z,1.25
2022-09-21T17:01:14.095Z,1.10
2022-09-21T17:03:40.570Z,1.15
2022-09-21T17:06:20.468Z,1.02
2022-09-21T17:08:48.174Z,1.20
2022-09-21T17:11:19.751Z,1.17
2022-09-21T17:13:47.753Z,1.13
2022-09-21T17:16:18.183Z,1.10
2022-09-21T17:18:48.808Z,1.10
2022-09-21T17:21:16.268Z,1.10
2022-09-21T17:23:42.823Z,1.10
2022-09-21T17:26:19.225Z,1.30
2022-09-21T17:28:45.651Z,3.13
2022-09-21T17:31:13.742Z,12.32
2022-09-21T17:33:40.628Z,8.10
2022-09-21T17:36:07.809Z,5.18
2022-09-21T17:38:35.364Z,4.00
2022-09-21T17:41:04.077Z,3.10
2022-09-21T17:43:37.178Z,2.72
2022-09-21T17:46:35.919Z,1.70
2022-09-21T17:49:03.787Z,1.40
2022-09-21T17:51:49.231Z,1.35
2022-09-21T17:54:15.970Z,1.65
2022-09-21T17:56:47.908Z,1.70
2022-09-21T17:59:27.796Z,1.73
2022-09-21T18:01:54.384Z,1.55
2022-09-21T18:04:21.076Z,1.65
2022-09-21T18:06:47.853Z,2.03
2022-09-21T18:09:14.441Z,1.50
2022-09-21T18:12:02.014Z,1.63
2022-09-21T18:15:04.025Z,1.75
2022-09-21T18:17:50.165Z,2.10
2022-09-21T18:20:28.717Z,2.10
2022-09-21T18:23:33.316Z,2.70
2022-09-21T18:26:00.463Z,3.20
2022-09-21T18:28:59.566Z,3.72
2022-09-21T18:31:44.674Z,3.40
2022-09-21T18:34:29.156Z,2.92
2022-09-21T18:37:43.028Z,2.80
2022-09-21T18:40:28.501Z,2.75
2022-09-21T18:43:01.552Z,2.03
2022-09-21T18:45:31.845Z,1.80
2022-09-21T18:48:16.504Z,1.95
2022-09-21T18:51:10.773Z,1.52
2022-09-21T18:53:55.923Z,1.55
2022-09-21T18:56:24.574Z,1.65
2022-09-21T18:58:51.761Z,1.60
2022-09-21T19:01:21.717Z,1.67
2022-09-21T19:03:49.710Z,1.67
2022-09-21T19:06:37.419Z,1.55
2022-09-21T19:09:51.110Z,1.65
2022-09-21T19:12:20.345Z,2.45
2022-09-21T19:15:00.361Z,2.25
2022-09-21T19:17:49.214Z,2.45
2022-09-21T19:20:29.391Z,2.30
2022-09-21T19:23:25.439Z,2.20
2022-09-21T19:25:53.382Z,2.50
2022-09-21T19:28:55.626Z,2.20
2022-09-21T19:31:22.183Z,2.23
2022-09-21T19:33:51.048Z,2.10
2022-09-21T19:36:18.717Z,1.88
2022-09-21T19:38:45.620Z,1.50
2022-09-21T19:41:24.900Z,1.70
2022-09-21T19:44:17.915Z,1.80
2022-09-21T19:49:19.711Z,1.65
2022-09-21T19:51:50.168Z,1.35
2022-09-21T19:54:40.225Z,1.30
2022-09-21T19:57:38.443Z,1.40
2022-09-21T20:00:07.295Z,1.75
2022-09-21T20:02:40.432Z,1.55
2022-09-21T20:05:22.350Z,1.70
2022-09-21T20:08:02.004Z,1.30
2022-09-21T20:10:41.969Z,1.50
2022-09-21T20:13:21.978Z,1.25
2022-09-21T20:16:18.943Z,1.40
2022-09-21T20:18:53.204Z,1.50
2022-09-21T20:21:21.069Z,1.60
2022-09-21T20:23:52.116Z,1.48
2022-09-21T20:26:23.861Z,1.73
2022-09-21T20:28:54.117Z,1.50
2022-09-21T20:31:25.147Z,1.77
2022-09-21T20:33:52.302Z,2.40
2022-09-21T20:36:18.685Z,2.30
2022-09-21T20:38:45.118Z,1.83
2022-09-21T20:41:13.004Z,1.85
2022-09-21T20:43:39.752Z,2.22
2022-09-21T20:46:06.548Z,2.92
2022-09-21T20:48:33.138Z,2.30
2022-09-21T20:51:01.443Z,2.50
2022-09-21T20:53:27.812Z,2.72
2022-09-21T20:55:58.442Z,2.35
2022-09-21T20:58:25.077Z,2.60
2022-09-21T21:00:56.470Z,2.50
2022-09-21T21:03:25.128Z,2.35
2022-09-21T21:05:51.491Z,2.13
2022-09-21T21:08:17.892Z,2.25
2022-09-21T21:10:46.564Z,2.30
2022-09-21T21:13:13.003Z,3.00
2022-09-21T21:15:39.456Z,3.63
2022-09-21T21:18:09.801Z,3.17
2022-09-21T21:20:37.458Z,3.00
2022-09-21T21:23:07.920Z,3.45
2022-09-21T21:25:34.720Z,3.45
2022-09-21T21:28:01.329Z,3.78
2022-09-21T21:30:27.761Z,3.67
2022-09-21T21:32:54.182Z,3.90
2022-09-21T21:35:20.576Z,4.30
2022-09-21T21:37:47.029Z,5.95
2022-09-21T21:40:13.483Z,5.00
2022-09-21T21:42:39.911Z,5.18
2022-09-21T21:45:06.735Z,5.15
2022-09-21T21:47:41.351Z,5.60
2022-09-21T21:50:09.205Z,5.28
2022-09-21T21:52:35.608Z,6.38
2022-09-21T21:55:02.487Z,6.25
2022-09-21T21:57:29.035Z,6.93
2022-09-21T21:59:55.446Z,6.45
2022-09-21T22:02:21.908Z,6.32
2022-09-21T22:04:48.360Z,7.03
2022-09-21T22:07:14.760Z,6.63
2022-09-21T22:09:41.144Z,6.45
2022-09-21T22:12:07.672Z,6.05
2022-09-21T22:14:34.073Z,6.70
2022-09-21T22:17:00.510Z,6.78
2022-09-21T22:19:26.926Z,6.13
2022-09-21T22:21:54.391Z,5.85
2022-09-21T22:24:21.313Z,5.47
2022-09-21T22:26:48.629Z,5.50
2022-09-21T22:29:16.534Z,4.60
2022-09-21T22:31:45.179Z,5.18
2022-09-21T22:34:12.550Z,4.93
2022-09-21T22:36:39.627Z,5.13
2022-09-21T22:39:07.344Z,5.13
2022-09-21T22:41:36.401Z,5.03
2022-09-21T22:44:02.846Z,4.47
2022-09-21T22:46:30.003Z,4.85
2022-09-21T22:48:56.389Z,4.30
2022-09-21T22:51:23.362Z,4.80
2022-09-21T22:53:50.895Z,4.90
2022-09-21T22:56:22.618Z,4.90
2022-09-21T22:58:51.744Z,4.90
2022-09-21T23:01:25.349Z,4.30
2022-09-21T23:03:57.653Z,4.80
2022-09-21T23:06:26.587Z,5.45
2022-09-21T23:08:54.538Z,5.05
2022-09-21T23:11:29.582Z,5.00
2022-09-21T23:13:57.017Z,5.40
2022-09-21T23:16:24.661Z,5.57
2022-09-21T23:18:51.818Z,5.05
2022-09-21T23:21:21.257Z,6.00
2022-09-21T23:23:48.195Z,5.80
2022-09-21T23:26:19.924Z,6.25
2022-09-21T23:28:51.907Z,6.63
2022-09-21T23:31:18.558Z,6.43
2022-09-21T23:33:47.661Z,6.40
2022-09-21T23:36:17.103Z,6.65
2022-09-21T23:38:43.995Z,6.13
2022-09-21T23:41:12.474Z,6.63
2022-09-21T23:43:40.161Z,7.18
2022-09-21T23:46:07.917Z,7.53
2022-09-21T23:48:34.565Z,7.57
2022-09-21T23:51:01.047Z,7.15
2022-09-21T23:53:28.237Z,7.32
2022-09-21T23:55:55.426Z,6.82
2022-09-21T23:58:22.357Z,7.15
